sensor_id;sensor_type;location;lat;lon;timestamp;P1;durP1;ratioP1;P2;durP2;ratioP2
63801;SDS011;49949;43.060;25.624;2023-06-10T00:02:07;12.18;;;6.07;;
63801;SDS011;49949;43.060;25.624;2023-06-10T00:04:33;11.00;;;5.70;;
63801;SDS011;49949;43.060;25.624;2023-06-10T00:07:02;13.63;;;5.85;;
63801;SDS011;49949;43.060;25.624;2023-06-10T00:09:29;11.10;;;5.68;;
63801;SDS011;49949;43.060;25.624;2023-06-10T00:11:54;9.15;;;5.70;;
63801;SDS011;49949;43.060;25.624;2023-06-10T00:14:20;16.65;;;6.70;;
63801;SDS011;49949;43.060;25.624;2023-06-10T00:16:46;11.10;;;5.63;;
63801;SDS011;49949;43.060;25.624;2023-06-10T00:19:12;10.18;;;5.72;;
63801;SDS011;49949;43.060;25.624;2023-06-10T00:21:41;11.60;;;5.93;;
63801;SDS011;49949;43.060;25.624;2023-06-10T00:24:10;11.93;;;5.57;;
63801;SDS011;49949;43.060;25.624;2023-06-10T00:26:40;9.45;;;5.65;;
63801;SDS011;49949;43.060;25.624;2023-06-10T00:29:07;10.48;;;5.57;;
63801;SDS011;49949;43.060;25.624;2023-06-10T00:31:34;11.23;;;5.90;;
63801;SDS011;49949;43.060;25.624;2023-06-10T00:34:00;13.48;;;5.32;;
63801;SDS011;49949;43.060;25.624;2023-06-10T00:36:26;12.35;;;5.90;;
63801;SDS011;49949;43.060;25.624;2023-06-10T00:38:52;13.18;;;6.53;;
63801;SDS011;49949;43.060;25.624;2023-06-10T00:41:17;8.73;;;6.10;;
63801;SDS011;49949;43.060;25.624;2023-06-10T00:43:43;10.50;;;6.20;;
63801;SDS011;49949;43.060;25.624;2023-06-10T00:46:09;10.13;;;6.07;;
63801;SDS011;49949;43.060;25.624;2023-06-10T00:48:37;13.95;;;7.20;;
63801;SDS011;49949;43.060;25.624;2023-06-10T00:51:06;13.38;;;6.78;;
63801;SDS011;49949;43.060;25.624;2023-06-10T00:53:34;14.50;;;7.10;;
63801;SDS011;49949;43.060;25.624;2023-06-10T00:56:01;12.77;;;6.70;;
63801;SDS011;49949;43.060;25.624;2023-06-10T00:58:28;13.18;;;6.50;;
63801;SDS011;49949;43.060;25.624;2023-06-10T01:00:54;12.23;;;6.88;;
63801;SDS011;49949;43.060;25.624;2023-06-10T01:03:20;17.05;;;7.28;;
63801;SDS011;49949;43.060;25.624;2023-06-10T01:05:50;12.07;;;6.93;;
63801;SDS011;49949;43.060;25.624;2023-06-10T01:10:59;12.95;;;8.02;;
63801;SDS011;49949;43.060;25.624;2023-06-10T01:13:26;14.88;;;7.85;;
63801;SDS011;49949;43.060;25.624;2023-06-10T01:15:57;15.45;;;7.95;;
63801;SDS011;49949;43.060;25.624;2023-06-10T01:18:29;23.63;;;6.60;;
63801;SDS011;49949;43.060;25.624;2023-06-10T01:20:57;11.70;;;6.50;;
63801;SDS011;49949;43.060;25.624;2023-06-10T01:23:23;21.38;;;7.45;;
63801;SDS011;49949;43.060;25.624;2023-06-10T01:25:54;23.60;;;7.47;;
63801;SDS011;49949;43.060;25.624;2023-06-10T01:28:33;13.65;;;6.93;;
63801;SDS011;49949;43.060;25.624;2023-06-10T01:33:45;19.80;;;7.53;;
63801;SDS011;49949;43.060;25.624;2023-06-10T01:36:13;11.27;;;6.53;;
63801;SDS011;49949;43.060;25.624;2023-06-10T01:38:45;13.60;;;6.57;;
63801;SDS011;49949;43.060;25.624;2023-06-10T01:41:12;10.57;;;6.68;;
63801;SDS011;49949;43.060;25.624;2023-06-10T01:43:42;12.80;;;6.53;;
63801;SDS011;49949;43.060;25.624;2023-06-10T01:46:09;13.75;;;6.90;;
63801;SDS011;49949;43.060;25.624;2023-06-10T01:48:34;12.93;;;6.30;;
63801;SDS011;49949;43.060;25.624;2023-06-10T01:51:00;13.55;;;6.32;;
63801;SDS011;49949;43.060;25.624;2023-06-10T01:53:26;13.65;;;6.95;;
63801;SDS011;49949;43.060;25.624;2023-06-10T01:55:55;19.90;;;7.50;;
63801;SDS011;49949;43.060;25.624;2023-06-10T01:58:21;20.15;;;7.78;;
63801;SDS011;49949;43.060;25.624;2023-06-10T02:00:46;17.42;;;6.32;;
63801;SDS011;49949;43.060;25.624;2023-06-10T02:03:12;10.93;;;6.55;;
63801;SDS011;49949;43.060;25.624;2023-06-10T02:05:38;13.18;;;6.70;;
63801;SDS011;49949;43.060;25.624;2023-06-10T02:08:07;12.70;;;6.53;;
63801;SDS011;49949;43.060;25.624;2023-06-10T02:10:32;12.98;;;6.95;;
63801;SDS011;49949;43.060;25.624;2023-06-10T02:12:58;10.77;;;5.80;;
63801;SDS011;49949;43.060;25.624;2023-06-10T02:15:24;9.32;;;5.25;;
63801;SDS011;49949;43.060;25.624;2023-06-10T02:17:50;9.20;;;5.68;;
63801;SDS011;49949;43.060;25.624;2023-06-10T02:20:16;10.52;;;5.78;;
63801;SDS011;49949;43.060;25.624;2023-06-10T02:22:42;15.40;;;6.30;;
63801;SDS011;49949;43.060;25.624;2023-06-10T02:25:08;16.17;;;6.95;;
63801;SDS011;49949;43.060;25.624;2023-06-10T02:27:34;10.68;;;6.63;;
63801;SDS011;49949;43.060;25.624;2023-06-10T02:30:00;16.60;;;6.38;;
63801;SDS011;49949;43.060;25.624;2023-06-10T02:32:26;19.10;;;6.72;;
63801;SDS011;49949;43.060;25.624;2023-06-10T02:34:51;17.50;;;5.88;;
63801;SDS011;49949;43.060;25.624;2023-06-10T02:37:18;11.00;;;5.97;;
63801;SDS011;49949;43.060;25.624;2023-06-10T02:39:44;10.35;;;6.05;;
63801;SDS011;49949;43.060;25.624;2023-06-10T02:42:10;10.30;;;6.18;;
63801;SDS011;49949;43.060;25.624;2023-06-10T02:44:36;10.32;;;6.43;;
63801;SDS011;49949;43.060;25.624;2023-06-10T02:47:02;27.17;;;7.18;;
63801;SDS011;49949;43.060;25.624;2023-06-10T02:49:28;15.82;;;6.10;;
63801;SDS011;49949;43.060;25.624;2023-06-10T02:51:54;19.70;;;6.38;;
63801;SDS011;49949;43.060;25.624;2023-06-10T02:54:20;16.13;;;6.00;;
63801;SDS011;49949;43.060;25.624;2023-06-10T02:56:46;14.25;;;6.63;;
63801;SDS011;49949;43.060;25.624;2023-06-10T02:59:13;10.55;;;6.82;;
63801;SDS011;49949;43.060;25.624;2023-06-10T03:01:42;11.82;;;6.15;;
63801;SDS011;49949;43.060;25.624;2023-06-10T03:04:08;14.18;;;6.47;;
63801;SDS011;49949;43.060;25.624;2023-06-10T03:06:34;10.30;;;5.97;;
63801;SDS011;49949;43.060;25.624;2023-06-10T03:09:00;22.42;;;6.20;;
63801;SDS011;49949;43.060;25.624;2023-06-10T03:11:29;22.30;;;6.63;;
63801;SDS011;49949;43.060;25.624;2023-06-10T03:13:56;15.77;;;8.00;;
63801;SDS011;49949;43.060;25.624;2023-06-10T03:16:22;12.68;;;5.95;;
63801;SDS011;49949;43.060;25.624;2023-06-10T03:18:50;10.40;;;6.63;;
63801;SDS011;49949;43.060;25.624;2023-06-10T03:21:16;14.05;;;6.35;;
63801;SDS011;49949;43.060;25.624;2023-06-10T03:23:41;11.25;;;5.72;;
63801;SDS011;49949;43.060;25.624;2023-06-10T03:26:07;12.10;;;5.88;;
63801;SDS011;49949;43.060;25.624;2023-06-10T03:28:35;12.93;;;5.70;;
63801;SDS011;49949;43.060;25.624;2023-06-10T03:31:00;14.10;;;6.00;;
63801;SDS011;49949;43.060;25.624;2023-06-10T03:33:26;20.52;;;6.88;;
63801;SDS011;49949;43.060;25.624;2023-06-10T03:35:52;12.57;;;5.95;;
63801;SDS011;49949;43.060;25.624;2023-06-10T03:38:18;9.50;;;5.68;;
63801;SDS011;49949;43.060;25.624;2023-06-10T03:40:44;14.77;;;6.35;;
63801;SDS011;49949;43.060;25.624;2023-06-10T03:43:10;14.80;;;6.18;;
63801;SDS011;49949;43.060;25.624;2023-06-10T03:45:35;10.70;;;6.50;;
63801;SDS011;49949;43.060;25.624;2023-06-10T03:48:04;13.98;;;6.43;;
63801;SDS011;49949;43.060;25.624;2023-06-10T03:50:31;23.48;;;8.48;;
63801;SDS011;49949;43.060;25.624;2023-06-10T03:52:57;25.90;;;11.40;;
63801;SDS011;49949;43.060;25.624;2023-06-10T03:55:23;29.13;;;11.25;;
63801;SDS011;49949;43.060;25.624;2023-06-10T03:57:49;15.27;;;8.30;;
63801;SDS011;49949;43.060;25.624;2023-06-10T04:00:15;14.88;;;6.53;;
63801;SDS011;49949;43.060;25.624;2023-06-10T04:02:43;22.00;;;9.50;;
63801;SDS011;49949;43.060;25.624;2023-06-10T04:05:12;29.90;;;11.10;;
63801;SDS011;49949;43.060;25.624;2023-06-10T04:07:39;19.67;;;9.77;;
63801;SDS011;49949;43.060;25.624;2023-06-10T04:10:11;23.92;;;9.98;;
63801;SDS011;49949;43.060;25.624;2023-06-10T04:12:38;21.77;;;10.35;;
63801;SDS011;49949;43.060;25.624;2023-06-10T04:15:05;28.88;;;10.77;;
63801;SDS011;49949;43.060;25.624;2023-06-10T04:17:31;21.52;;;10.25;;
63801;SDS011;49949;43.060;25.624;2023-06-10T04:19:57;22.05;;;11.02;;
63801;SDS011;49949;43.060;25.624;2023-06-10T04:22:25;22.75;;;9.35;;
63801;SDS011;49949;43.060;25.624;2023-06-10T04:24:51;21.48;;;10.20;;
63801;SDS011;49949;43.060;25.624;2023-06-10T04:27:18;24.42;;;9.30;;
63801;SDS011;49949;43.060;25.624;2023-06-10T04:29:44;21.23;;;10.43;;
63801;SDS011;49949;43.060;25.624;2023-06-10T04:32:09;25.33;;;11.50;;
63801;SDS011;49949;43.060;25.624;2023-06-10T04:34:35;22.33;;;11.30;;
63801;SDS011;49949;43.060;25.624;2023-06-10T04:37:04;31.23;;;13.32;;
63801;SDS011;49949;43.060;25.624;2023-06-10T04:39:30;21.38;;;11.02;;
63801;SDS011;49949;43.060;25.624;2023-06-10T04:41:55;34.13;;;13.32;;
63801;SDS011;49949;43.060;25.624;2023-06-10T04:44:21;28.58;;;13.38;;
63801;SDS011;49949;43.060;25.624;2023-06-10T04:46:47;32.40;;;13.88;;
63801;SDS011;49949;43.060;25.624;2023-06-10T04:49:13;26.23;;;13.73;;
63801;SDS011;49949;43.060;25.624;2023-06-10T04:51:41;33.92;;;14.63;;
63801;SDS011;49949;43.060;25.624;2023-06-10T04:54:07;42.90;;;17.70;;
63801;SDS011;49949;43.060;25.624;2023-06-10T04:56:33;30.17;;;13.75;;
63801;SDS011;49949;43.060;25.624;2023-06-10T04:58:59;31.45;;;16.17;;
63801;SDS011;49949;43.060;25.624;2023-06-10T05:01:25;34.83;;;15.57;;
63801;SDS011;49949;43.060;25.624;2023-06-10T05:03:51;38.35;;;16.20;;
63801;SDS011;49949;43.060;25.624;2023-06-10T05:06:16;42.30;;;16.98;;
63801;SDS011;49949;43.060;25.624;2023-06-10T05:08:42;52.78;;;18.20;;
63801;SDS011;49949;43.060;25.624;2023-06-10T05:11:08;39.13;;;17.13;;
63801;SDS011;49949;43.060;25.624;2023-06-10T05:13:33;46.03;;;17.13;;
63801;SDS011;49949;43.060;25.624;2023-06-10T05:15:59;38.63;;;16.88;;
63801;SDS011;49949;43.060;25.624;2023-06-10T05:18:25;41.50;;;16.85;;
63801;SDS011;49949;43.060;25.624;2023-06-10T05:20:51;41.45;;;16.90;;
63801;SDS011;49949;43.060;25.624;2023-06-10T05:23:18;46.08;;;16.52;;
63801;SDS011;49949;43.060;25.624;2023-06-10T05:25:44;41.47;;;16.40;;
63801;SDS011;49949;43.060;25.624;2023-06-10T05:28:10;37.08;;;16.98;;
63801;SDS011;49949;43.060;25.624;2023-06-10T05:30:36;51.75;;;17.25;;
63801;SDS011;49949;43.060;25.624;2023-06-10T05:33:02;35.63;;;16.25;;
63801;SDS011;49949;43.060;25.624;2023-06-10T05:35:29;40.85;;;15.25;;
63801;SDS011;49949;43.060;25.624;2023-06-10T05:37:55;38.97;;;15.65;;
63801;SDS011;49949;43.060;25.624;2023-06-10T05:40:20;38.63;;;15.63;;
63801;SDS011;49949;43.060;25.624;2023-06-10T05:42:46;49.92;;;16.77;;
63801;SDS011;49949;43.060;25.624;2023-06-10T05:45:15;39.67;;;14.48;;
63801;SDS011;49949;43.060;25.624;2023-06-10T05:47:44;36.45;;;12.65;;
63801;SDS011;49949;43.060;25.624;2023-06-10T05:50:09;34.67;;;13.65;;
63801;SDS011;49949;43.060;25.624;2023-06-10T05:52:35;48.85;;;12.93;;
63801;SDS011;49949;43.060;25.624;2023-06-10T05:55:02;36.95;;;13.55;;
63801;SDS011;49949;43.060;25.624;2023-06-10T05:57:28;19.77;;;11.60;;
63801;SDS011;49949;43.060;25.624;2023-06-10T05:59:54;24.55;;;10.73;;
63801;SDS011;49949;43.060;25.624;2023-06-10T06:02:20;24.00;;;11.88;;
63801;SDS011;49949;43.060;25.624;2023-06-10T06:04:46;18.58;;;12.25;;
63801;SDS011;49949;43.060;25.624;2023-06-10T06:07:13;21.02;;;11.23;;
63801;SDS011;49949;43.060;25.624;2023-06-10T06:09:38;22.60;;;10.85;;
63801;SDS011;49949;43.060;25.624;2023-06-10T06:12:04;15.98;;;10.55;;
63801;SDS011;49949;43.060;25.624;2023-06-10T06:14:32;21.55;;;9.63;;
63801;SDS011;49949;43.060;25.624;2023-06-10T06:17:02;17.85;;;9.13;;
63801;SDS011;49949;43.060;25.624;2023-06-10T06:19:27;23.92;;;8.65;;
63801;SDS011;49949;43.060;25.624;2023-06-10T06:21:53;15.05;;;7.90;;
63801;SDS011;49949;43.060;25.624;2023-06-10T06:24:23;20.42;;;7.82;;
63801;SDS011;49949;43.060;25.624;2023-06-10T06:26:49;16.95;;;7.70;;
63801;SDS011;49949;43.060;25.624;2023-06-10T06:29:15;13.02;;;7.50;;
63801;SDS011;49949;43.060;25.624;2023-06-10T06:31:40;19.38;;;7.70;;
63801;SDS011;49949;43.060;25.624;2023-06-10T06:34:06;17.15;;;7.57;;
63801;SDS011;49949;43.060;25.624;2023-06-10T06:36:32;17.42;;;7.00;;
63801;SDS011;49949;43.060;25.624;2023-06-10T06:38:57;12.90;;;7.53;;
63801;SDS011;49949;43.060;25.624;2023-06-10T06:41:24;17.33;;;7.55;;
63801;SDS011;49949;43.060;25.624;2023-06-10T06:43:53;19.20;;;8.20;;
63801;SDS011;49949;43.060;25.624;2023-06-10T06:46:20;26.88;;;9.25;;
63801;SDS011;49949;43.060;25.624;2023-06-10T06:48:46;25.83;;;8.63;;
63801;SDS011;49949;43.060;25.624;2023-06-10T06:51:13;16.70;;;7.80;;
63801;SDS011;49949;43.060;25.624;2023-06-10T06:53:39;16.05;;;7.70;;
63801;SDS011;49949;43.060;25.624;2023-06-10T06:56:09;22.63;;;6.63;;
63801;SDS011;49949;43.060;25.624;2023-06-10T06:58:36;47.33;;;8.23;;
63801;SDS011;49949;43.060;25.624;2023-06-10T07:01:01;26.95;;;7.97;;
63801;SDS011;49949;43.060;25.624;2023-06-10T07:03:27;84.75;;;9.63;;
63801;SDS011;49949;43.060;25.624;2023-06-10T07:05:53;31.52;;;7.78;;
63801;SDS011;49949;43.060;25.624;2023-06-10T07:08:18;22.45;;;6.65;;
63801;SDS011;49949;43.060;25.624;2023-06-10T07:10:45;26.10;;;8.00;;
63801;SDS011;49949;43.060;25.624;2023-06-10T07:13:11;22.20;;;7.50;;
63801;SDS011;49949;43.060;25.624;2023-06-10T07:15:38;33.33;;;7.85;;
63801;SDS011;49949;43.060;25.624;2023-06-10T07:18:04;8.02;;;3.80;;
63801;SDS011;49949;43.060;25.624;2023-06-10T07:20:29;21.58;;;5.75;;
63801;SDS011;49949;43.060;25.624;2023-06-10T07:22:55;11.45;;;3.88;;
63801;SDS011;49949;43.060;25.624;2023-06-10T07:25:21;9.48;;;3.55;;
63801;SDS011;49949;43.060;25.624;2023-06-10T07:27:46;10.30;;;3.90;;
63801;SDS011;49949;43.060;25.624;2023-06-10T07:30:12;6.63;;;3.60;;
63801;SDS011;49949;43.060;25.624;2023-06-10T07:32:39;6.28;;;3.30;;
63801;SDS011;49949;43.060;25.624;2023-06-10T07:35:08;4.28;;;3.40;;
63801;SDS011;49949;43.060;25.624;2023-06-10T07:37:38;12.85;;;4.45;;
63801;SDS011;49949;43.060;25.624;2023-06-10T07:40:04;17.23;;;3.97;;
63801;SDS011;49949;43.060;25.624;2023-06-10T07:42:31;10.63;;;3.67;;
63801;SDS011;49949;43.060;25.624;2023-06-10T07:44:59;10.40;;;4.47;;
63801;SDS011;49949;43.060;25.624;2023-06-10T07:47:24;16.63;;;5.00;;
63801;SDS011;49949;43.060;25.624;2023-06-10T07:49:50;8.25;;;4.32;;
63801;SDS011;49949;43.060;25.624;2023-06-10T07:52:16;8.98;;;3.97;;
63801;SDS011;49949;43.060;25.624;2023-06-10T07:54:41;7.22;;;3.72;;
63801;SDS011;49949;43.060;25.624;2023-06-10T07:57:07;25.75;;;5.40;;
63801;SDS011;49949;43.060;25.624;2023-06-10T07:59:33;11.02;;;3.92;;
63801;SDS011;49949;43.060;25.624;2023-06-10T08:01:59;12.23;;;3.67;;
63801;SDS011;49949;43.060;25.624;2023-06-10T08:04:28;18.88;;;3.63;;
63801;SDS011;49949;43.060;25.624;2023-06-10T08:06:55;15.55;;;3.45;;
63801;SDS011;49949;43.060;25.624;2023-06-10T08:09:21;7.50;;;3.58;;
63801;SDS011;49949;43.060;25.624;2023-06-10T08:11:48;11.60;;;4.43;;
63801;SDS011;49949;43.060;25.624;2023-06-10T08:14:14;15.18;;;3.42;;
63801;SDS011;49949;43.060;25.624;2023-06-10T08:16:41;13.50;;;3.63;;
63801;SDS011;49949;43.060;25.624;2023-06-10T08:19:08;19.40;;;7.32;;
63801;SDS011;49949;43.060;25.624;2023-06-10T08:21:35;17.52;;;4.97;;
63801;SDS011;49949;43.060;25.624;2023-06-10T08:24:04;7.65;;;3.53;;
63801;SDS011;49949;43.060;25.624;2023-06-10T08:26:31;22.80;;;3.88;;
63801;SDS011;49949;43.060;25.624;2023-06-10T08:29:00;5.00;;;3.20;;
63801;SDS011;49949;43.060;25.624;2023-06-10T08:31:26;16.02;;;3.40;;
63801;SDS011;49949;43.060;25.624;2023-06-10T08:33:51;8.75;;;3.58;;
63801;SDS011;49949;43.060;25.624;2023-06-10T08:36:17;6.30;;;3.08;;
63801;SDS011;49949;43.060;25.624;2023-06-10T08:38:43;5.50;;;3.05;;
63801;SDS011;49949;43.060;25.624;2023-06-10T08:41:08;56.45;;;4.72;;
63801;SDS011;49949;43.060;25.624;2023-06-10T08:43:56;5.03;;;3.13;;
63801;SDS011;49949;43.060;25.624;2023-06-10T08:46:29;12.10;;;3.25;;
63801;SDS011;49949;43.060;25.624;2023-06-10T08:48:56;6.43;;;3.20;;
63801;SDS011;49949;43.060;25.624;2023-06-10T08:51:28;11.25;;;3.28;;
63801;SDS011;49949;43.060;25.624;2023-06-10T08:54:18;6.50;;;2.67;;
63801;SDS011;49949;43.060;25.624;2023-06-10T08:56:50;6.85;;;3.00;;
63801;SDS011;49949;43.060;25.624;2023-06-10T08:59:17;5.40;;;2.90;;
63801;SDS011;49949;43.060;25.624;2023-06-10T09:01:45;8.18;;;3.47;;
63801;SDS011;49949;43.060;25.624;2023-06-10T09:04:11;8.10;;;2.85;;
63801;SDS011;49949;43.060;25.624;2023-06-10T09:06:38;7.60;;;3.08;;
63801;SDS011;49949;43.060;25.624;2023-06-10T09:09:05;3.90;;;3.25;;
63801;SDS011;49949;43.060;25.624;2023-06-10T09:11:31;13.18;;;3.63;;
63801;SDS011;49949;43.060;25.624;2023-06-10T09:13:58;13.15;;;4.13;;
63801;SDS011;49949;43.060;25.624;2023-06-10T09:16:24;20.33;;;4.22;;
63801;SDS011;49949;43.060;25.624;2023-06-10T09:18:50;12.98;;;4.53;;
63801;SDS011;49949;43.060;25.624;2023-06-10T09:21:21;3.47;;;2.67;;
63801;SDS011;49949;43.060;25.624;2023-06-10T09:23:50;6.47;;;3.40;;
63801;SDS011;49949;43.060;25.624;2023-06-10T09:26:17;4.03;;;3.13;;
63801;SDS011;49949;43.060;25.624;2023-06-10T09:28:49;4.18;;;2.88;;
63801;SDS011;49949;43.060;25.624;2023-06-10T09:31:15;8.00;;;3.15;;
63801;SDS011;49949;43.060;25.624;2023-06-10T09:33:43;3.03;;;2.67;;
63801;SDS011;49949;43.060;25.624;2023-06-10T09:36:09;3.08;;;2.63;;
63801;SDS011;49949;43.060;25.624;2023-06-10T09:38:36;4.43;;;2.63;;
63801;SDS011;49949;43.060;25.624;2023-06-10T09:41:02;3.72;;;2.78;;
63801;SDS011;49949;43.060;25.624;2023-06-10T09:43:41;3.78;;;3.08;;
63801;SDS011;49949;43.060;25.624;2023-06-10T09:46:18;3.90;;;3.22;;
63801;SDS011;49949;43.060;25.624;2023-06-10T09:48:45;9.30;;;3.42;;
63801;SDS011;49949;43.060;25.624;2023-06-10T09:51:12;4.38;;;3.78;;
63801;SDS011;49949;43.060;25.624;2023-06-10T09:53:39;6.60;;;3.58;;
63801;SDS011;49949;43.060;25.624;2023-06-10T09:56:05;6.28;;;3.38;;
63801;SDS011;49949;43.060;25.624;2023-06-10T09:58:35;5.50;;;3.58;;
63801;SDS011;49949;43.060;25.624;2023-06-10T10:01:08;6.57;;;3.60;;
63801;SDS011;49949;43.060;25.624;2023-06-10T10:03:45;13.75;;;5.85;;
63801;SDS011;49949;43.060;25.624;2023-06-10T10:06:15;11.07;;;4.60;;
63801;SDS011;49949;43.060;25.624;2023-06-10T10:08:42;8.63;;;3.60;;
63801;SDS011;49949;43.060;25.624;2023-06-10T10:11:08;5.15;;;3.28;;
63801;SDS011;49949;43.060;25.624;2023-06-10T10:13:35;3.72;;;3.33;;
63801;SDS011;49949;43.060;25.624;2023-06-10T10:16:09;7.28;;;3.40;;
63801;SDS011;49949;43.060;25.624;2023-06-10T10:18:41;5.80;;;3.50;;
63801;SDS011;49949;43.060;25.624;2023-06-10T10:21:11;5.28;;;3.65;;
63801;SDS011;49949;43.060;25.624;2023-06-10T10:23:47;6.07;;;3.30;;
63801;SDS011;49949;43.060;25.624;2023-06-10T10:26:18;4.40;;;3.53;;
63801;SDS011;49949;43.060;25.624;2023-06-10T10:29:02;7.60;;;3.88;;
63801;SDS011;49949;43.060;25.624;2023-06-10T10:31:36;12.05;;;4.07;;
63801;SDS011;49949;43.060;25.624;2023-06-10T10:34:07;4.97;;;3.85;;
63801;SDS011;49949;43.060;25.624;2023-06-10T10:36:37;8.80;;;3.58;;
63801;SDS011;49949;43.060;25.624;2023-06-10T10:39:04;6.93;;;3.80;;
63801;SDS011;49949;43.060;25.624;2023-06-10T10:41:30;15.93;;;3.30;;
63801;SDS011;49949;43.060;25.624;2023-06-10T10:43:57;7.30;;;3.15;;
63801;SDS011;49949;43.060;25.624;2023-06-10T10:46:23;5.95;;;2.90;;
63801;SDS011;49949;43.060;25.624;2023-06-10T10:48:53;6.95;;;2.78;;
63801;SDS011;49949;43.060;25.624;2023-06-10T10:51:19;4.57;;;2.90;;
63801;SDS011;49949;43.060;25.624;2023-06-10T10:57:09;8.68;;;2.75;;
63801;SDS011;49949;43.060;25.624;2023-06-10T11:02:37;14.38;;;2.97;;
63801;SDS011;49949;43.060;25.624;2023-06-10T11:05:12;14.25;;;2.75;;
63801;SDS011;49949;43.060;25.624;2023-06-10T11:07:40;14.85;;;2.60;;
63801;SDS011;49949;43.060;25.624;2023-06-10T11:10:16;8.77;;;2.35;;
63801;SDS011;49949;43.060;25.624;2023-06-10T11:15:11;3.42;;;2.33;;
63801;SDS011;49949;43.060;25.624;2023-06-10T11:20:58;6.72;;;2.53;;
63801;SDS011;49949;43.060;25.624;2023-06-10T11:31:33;12.27;;;3.10;;
63801;SDS011;49949;43.060;25.624;2023-06-10T11:33:59;8.02;;;3.20;;
63801;SDS011;49949;43.060;25.624;2023-06-10T11:36:30;8.45;;;3.35;;
63801;SDS011;49949;43.060;25.624;2023-06-10T11:39:00;8.73;;;3.67;;
63801;SDS011;49949;43.060;25.624;2023-06-10T11:41:30;7.20;;;2.80;;
63801;SDS011;49949;43.060;25.624;2023-06-10T11:43:57;4.75;;;2.47;;
63801;SDS011;49949;43.060;25.624;2023-06-10T11:46:29;3.90;;;2.65;;
63801;SDS011;49949;43.060;25.624;2023-06-10T11:48:58;12.77;;;3.30;;
63801;SDS011;49949;43.060;25.624;2023-06-10T11:51:25;4.55;;;3.00;;
63801;SDS011;49949;43.060;25.624;2023-06-10T11:53:52;6.25;;;3.10;;
63801;SDS011;49949;43.060;25.624;2023-06-10T11:56:22;4.45;;;3.30;;
63801;SDS011;49949;43.060;25.624;2023-06-10T11:58:59;7.43;;;3.30;;
63801;SDS011;49949;43.060;25.624;2023-06-10T12:01:44;5.47;;;3.20;;
63801;SDS011;49949;43.060;25.624;2023-06-10T12:04:11;6.65;;;3.10;;
63801;SDS011;49949;43.060;25.624;2023-06-10T12:09:05;9.82;;;3.20;;
63801;SDS011;49949;43.060;25.624;2023-06-10T12:11:31;9.02;;;3.33;;
63801;SDS011;49949;43.060;25.624;2023-06-10T12:13:58;9.65;;;3.30;;
63801;SDS011;49949;43.060;25.624;2023-06-10T12:16:23;4.05;;;3.13;;
63801;SDS011;49949;43.060;25.624;2023-06-10T12:18:49;6.63;;;3.00;;
63801;SDS011;49949;43.060;25.624;2023-06-10T12:21:18;7.75;;;3.13;;
63801;SDS011;49949;43.060;25.624;2023-06-10T12:26:40;6.53;;;3.40;;
63801;SDS011;49949;43.060;25.624;2023-06-10T12:29:15;18.85;;;3.58;;
63801;SDS011;49949;43.060;25.624;2023-06-10T12:31:52;9.07;;;2.83;;
63801;SDS011;49949;43.060;25.624;2023-06-10T12:34:30;5.75;;;2.95;;
63801;SDS011;49949;43.060;25.624;2023-06-10T12:37:05;5.75;;;2.85;;
63801;SDS011;49949;43.060;25.624;2023-06-10T12:39:38;21.23;;;3.72;;
63801;SDS011;49949;43.060;25.624;2023-06-10T12:42:04;8.45;;;3.42;;
63801;SDS011;49949;43.060;25.624;2023-06-10T12:44:34;7.88;;;3.50;;
63801;SDS011;49949;43.060;25.624;2023-06-10T12:47:10;8.63;;;3.30;;
63801;SDS011;49949;43.060;25.624;2023-06-10T12:49:39;3.78;;;3.28;;
63801;SDS011;49949;43.060;25.624;2023-06-10T12:52:05;6.70;;;2.80;;
63801;SDS011;49949;43.060;25.624;2023-06-10T12:54:32;5.35;;;3.05;;
63801;SDS011;49949;43.060;25.624;2023-06-10T12:56:59;4.75;;;2.97;;
63801;SDS011;49949;43.060;25.624;2023-06-10T12:59:26;7.18;;;2.60;;
63801;SDS011;49949;43.060;25.624;2023-06-10T13:01:52;6.43;;;3.08;;
63801;SDS011;49949;43.060;25.624;2023-06-10T13:04:18;9.63;;;2.60;;
63801;SDS011;49949;43.060;25.624;2023-06-10T13:06:45;10.73;;;3.03;;
63801;SDS011;49949;43.060;25.624;2023-06-10T13:09:12;7.25;;;3.20;;
63801;SDS011;49949;43.060;25.624;2023-06-10T13:11:38;6.10;;;2.75;;
63801;SDS011;49949;43.060;25.624;2023-06-10T13:14:05;4.97;;;2.90;;
63801;SDS011;49949;43.060;25.624;2023-06-10T13:16:31;3.72;;;2.70;;
63801;SDS011;49949;43.060;25.624;2023-06-10T13:18:57;10.05;;;2.78;;
63801;SDS011;49949;43.060;25.624;2023-06-10T13:21:23;6.00;;;2.80;;
63801;SDS011;49949;43.060;25.624;2023-06-10T13:23:50;8.07;;;3.15;;
63801;SDS011;49949;43.060;25.624;2023-06-10T13:26:16;6.43;;;3.20;;
63801;SDS011;49949;43.060;25.624;2023-06-10T13:28:43;24.17;;;4.88;;
63801;SDS011;49949;43.060;25.624;2023-06-10T13:31:09;13.07;;;3.42;;
63801;SDS011;49949;43.060;25.624;2023-06-10T13:33:35;7.88;;;2.90;;
63801;SDS011;49949;43.060;25.624;2023-06-10T13:36:01;8.27;;;3.25;;
63801;SDS011;49949;43.060;25.624;2023-06-10T13:38:27;11.23;;;3.22;;
63801;SDS011;49949;43.060;25.624;2023-06-10T13:40:52;8.18;;;3.10;;
63801;SDS011;49949;43.060;25.624;2023-06-10T13:43:18;9.00;;;2.83;;
63801;SDS011;49949;43.060;25.624;2023-06-10T13:45:44;18.05;;;4.68;;
63801;SDS011;49949;43.060;25.624;2023-06-10T13:48:10;9.27;;;3.70;;
63801;SDS011;49949;43.060;25.624;2023-06-10T13:50:36;10.55;;;3.30;;
63801;SDS011;49949;43.060;25.624;2023-06-10T13:53:04;7.30;;;3.17;;
63801;SDS011;49949;43.060;25.624;2023-06-10T13:55:29;12.77;;;3.10;;
63801;SDS011;49949;43.060;25.624;2023-06-10T13:57:55;5.25;;;2.85;;
63801;SDS011;49949;43.060;25.624;2023-06-10T14:00:21;5.28;;;3.38;;
63801;SDS011;49949;43.060;25.624;2023-06-10T14:02:46;17.67;;;3.72;;
63801;SDS011;49949;43.060;25.624;2023-06-10T14:05:12;11.52;;;3.47;;
63801;SDS011;49949;43.060;25.624;2023-06-10T14:07:38;10.68;;;3.25;;
63801;SDS011;49949;43.060;25.624;2023-06-10T14:10:05;5.82;;;3.03;;
63801;SDS011;49949;43.060;25.624;2023-06-10T14:12:33;6.15;;;3.05;;
63801;SDS011;49949;43.060;25.624;2023-06-10T14:14:59;6.07;;;3.55;;
63801;SDS011;49949;43.060;25.624;2023-06-10T14:17:25;4.47;;;3.35;;
63801;SDS011;49949;43.060;25.624;2023-06-10T14:19:51;3.80;;;2.95;;
63801;SDS011;49949;43.060;25.624;2023-06-10T14:22:19;8.32;;;3.72;;
63801;SDS011;49949;43.060;25.624;2023-06-10T14:24:45;7.30;;;3.35;;
63801;SDS011;49949;43.060;25.624;2023-06-10T14:27:12;4.95;;;3.08;;
63801;SDS011;49949;43.060;25.624;2023-06-10T14:29:37;9.00;;;3.20;;
63801;SDS011;49949;43.060;25.624;2023-06-10T14:32:03;11.85;;;3.50;;
63801;SDS011;49949;43.060;25.624;2023-06-10T14:34:29;30.67;;;3.22;;
63801;SDS011;49949;43.060;25.624;2023-06-10T14:36:58;6.60;;;2.92;;
63801;SDS011;49949;43.060;25.624;2023-06-10T14:39:25;3.45;;;2.53;;
63801;SDS011;49949;43.060;25.624;2023-06-10T14:41:50;5.03;;;2.92;;
63801;SDS011;49949;43.060;25.624;2023-06-10T14:44:18;16.92;;;4.40;;
63801;SDS011;49949;43.060;25.624;2023-06-10T14:46:43;6.88;;;3.47;;
63801;SDS011;49949;43.060;25.624;2023-06-10T14:49:09;15.02;;;4.25;;
63801;SDS011;49949;43.060;25.624;2023-06-10T14:51:35;13.25;;;6.15;;
63801;SDS011;49949;43.060;25.624;2023-06-10T14:54:01;12.13;;;3.95;;
63801;SDS011;49949;43.060;25.624;2023-06-10T14:56:26;10.27;;;3.35;;